Flugplatz Sömmerda-Dermsdorf

Für EDBS sind keine METAR/TAF Berichte vorhanden.
Es werden die Flugwettermeldungen vom Flugplatz Erfurt in 29 km Entfernung angezeigt.

Bericht für EDDE

vom 25.10. um 16:50 UTC

Wind 9 kt aus 220°

Sichtweite 10 km oder mehr

gute Sicht, keine Wolken < 5000 ft, keine CB, keine Wettererscheinungen (CAVOK)

Temperatur 9.0°C

Taupunkt 4.0°C

Luftfeuchtigkeit 71%

Luftdruck 1019 hPa

keine wesentliche Wetteränderung innerhalb den nächsten 2 Stunden zu erwarten

EDDE 251650Z 22009KT CAVOK 09/04 Q1019 NOSIG

Prognose für EDDE

vom 25.10. um 11:00 UTC

Zwischen 12:00 UTC und 07:00 UTC

Wind 7 kt aus 210°

Sichtweite 10 km oder mehr

keine signifikanten Wettererscheinungen

keine Wolken


Am 26.10. zwischen 07:00 und 09:00 UTC übergehend zu

Wind 12 kt aus 250°

Sichtweite 10 km oder mehr

keine signifikanten Wettererscheinungen

keine Wolken

TAF EDDE 251100Z 2512/2612 21007KT CAVOK BECMG 2607/2609 25012KT
Impressum